TALO2: Illinois River, Tahlequah, OK

                                SHEF ID:       TALO2     Illinois River near Tahlequah, O
STATION TYPE:
Regulating: Stage = 11.00, Flow = 10168

PRECIP STAGE STAGE(2) RIV-FLOW BAT-LOAD
in ft ft cfs volt
Ccp-Rev Ccp-Rev Ccp-Rev Ccp-Rev Ccp-Rev
(America/Chicago)
04/24 00:00 ---- 6.05 ---- 1031 12.01
04/24 01:00 ---- 6.03 ---- 1013 12.01
04/24 02:00 ---- 6.03 ---- 1013 12.09
04/24 03:00 ---- 6.03 ---- 1013 12.01
04/24 04:00 ---- 6.12 ---- 1097 12.09
04/24 05:00 ---- 6.14 ---- 1116 11.53
04/24 06:00 ---- 6.16 ---- 1136 11.77
04/24 07:00 ---- 6.17 ---- 1146 12.17
04/24 08:00 ---- 6.18 ---- 1156 12.09
04/24 09:00 ---- 6.23 ---- 1206 12.33
04/24 10:00 ---- 6.26 ---- 1237 12.81
04/24 11:00 ---- 6.29 ---- 1268 12.65
04/24 12:00 ---- 6.34 ---- 1322 12.89
04/24 13:00 ---- 6.49 ---- 1492 12.89
04/24 14:00 ---- 6.68 ---- 1728 12.73
04/24 15:00 ---- 6.87 ---- 1992 12.41
04/24 16:00 ---- 7.03 ---- 2234 12.73
04/24 17:00 ---- 7.15 ---- 2424 12.41
04/24 18:00 ---- 7.27 ---- 2623 12.65
04/24 19:00 ---- 7.42 ---- 2885 12.57
04/24 20:00 ---- 7.58 ---- 3180 12.81
04/24 21:00 ---- 7.78 ---- 3548 12.49
04/24 22:00 ---- 7.91 ---- 3790 12.33
04/24 23:00 ---- ---- ---- ---- ----
Data processed at Sat 25Apr2026 04:33 GMT

NOTICE: If you are parsing this page

Please convert to using our Data API. Starting early 2026 we will be migrating to: https://water.usace.army.mil with modern pages rendered in JavaScript. When this migration completes you will no longer be able to scrape this page! CWMSDataAPI (CDA)

Timeseries IDs (TSIDs)

TSIDs used from left to right in the data table
TAHL.Precip-Inc.Total.1Hour.0.Ccp-Rev
TAHL.Stage.Inst.1Hour.0.Ccp-Rev
TAHL.Stage-Alt.Inst.1Hour.0.Ccp-Rev
TAHL.Flow.Inst.1Hour.0.Ccp-Rev
TAHL.Volt-Battery Load.Inst.1Hour.0.Ccp-Rev

                            

All information presented herein is the property of the government of the United States of America and may be revised or deleted at any time without prior notice. Dissemination of this information without the expressed written consent of the Public Affairs Office, Tulsa District U.S. Army Corps of Engineers is strictly prohibited. These data are gathered electronically and, as presented, have NOT undergone any form of quality control. These data are NOT guaranteed to be valid or correct.